createdAt,value
2023-05-10T00:02:10.015Z,8.60
2023-05-10T00:05:11.864Z,9.25
2023-05-10T00:08:15.064Z,6.63
2023-05-10T00:11:16.856Z,6.60
2023-05-10T00:14:18.699Z,6.78
2023-05-10T00:17:20.443Z,6.60
2023-05-10T00:20:22.247Z,6.10
2023-05-10T00:23:26.092Z,8.02
2023-05-10T00:26:27.877Z,6.85
2023-05-10T00:29:29.723Z,6.43
2023-05-10T00:32:31.751Z,8.27
2023-05-10T00:35:33.723Z,10.80
2023-05-10T00:38:37.006Z,6.78
2023-05-10T00:41:38.979Z,7.88
2023-05-10T00:44:40.844Z,7.13
2023-05-10T00:47:42.774Z,7.47
2023-05-10T00:50:44.670Z,7.68
2023-05-10T00:53:49.001Z,8.57
2023-05-10T00:56:50.946Z,7.10
2023-05-10T00:59:52.729Z,7.82
2023-05-10T01:02:55.086Z,10.57
2023-05-10T01:05:57.135Z,6.50
2023-05-10T01:09:00.394Z,7.40
2023-05-10T01:12:03.019Z,6.63
2023-05-10T01:15:06.502Z,7.60
2023-05-10T01:18:10.185Z,7.63
2023-05-10T01:21:22.221Z,6.03
2023-05-10T01:24:52.509Z,6.72
2023-05-10T01:28:47.522Z,7.65
2023-05-10T01:32:22.171Z,6.55
2023-05-10T01:35:31.984Z,8.90
2023-05-10T01:38:42.920Z,9.35
2023-05-10T01:41:50.548Z,7.82
2023-05-10T01:45:01.250Z,7.05
2023-05-10T01:48:10.618Z,7.18
2023-05-10T01:54:18.498Z,7.25
2023-05-10T01:57:21.306Z,8.80
2023-05-10T02:00:24.582Z,7.40
2023-05-10T02:03:29.397Z,6.95
2023-05-10T02:06:33.013Z,8.10
2023-05-10T02:09:36.318Z,7.75
2023-05-10T02:12:43.138Z,7.72
2023-05-10T02:15:49.035Z,8.45
2023-05-10T02:18:53.876Z,6.97
2023-05-10T02:21:56.806Z,7.13
2023-05-10T02:25:00.618Z,9.10
2023-05-10T02:28:05.600Z,7.22
2023-05-10T02:31:08.983Z,11.02
2023-05-10T02:34:15.590Z,8.18
2023-05-10T02:37:19.754Z,10.63
2023-05-10T02:40:23.988Z,7.10
2023-05-10T02:43:26.699Z,8.55
2023-05-10T02:46:28.528Z,6.53
2023-05-10T02:49:31.777Z,6.97
2023-05-10T02:52:40.569Z,6.45
2023-05-10T02:55:44.438Z,6.20
2023-05-10T02:58:46.256Z,7.47
2023-05-10T03:01:48.130Z,6.22
2023-05-10T03:04:51.515Z,4.85
2023-05-10T03:07:54.000Z,7.07
2023-05-10T03:11:09.417Z,5.95
2023-05-10T03:14:22.739Z,6.70
2023-05-10T03:17:30.771Z,5.82
2023-05-10T03:20:37.446Z,7.57
2023-05-10T03:23:43.325Z,9.50
2023-05-10T03:26:45.670Z,6.45
2023-05-10T03:29:47.825Z,5.65
2023-05-10T03:32:49.813Z,4.85
2023-05-10T03:35:53.028Z,3.85
2023-05-10T03:38:54.791Z,3.65
2023-05-10T03:41:57.720Z,3.58
2023-05-10T03:44:59.514Z,3.90
2023-05-10T03:48:01.337Z,3.33
2023-05-10T03:51:05.833Z,2.85
2023-05-10T03:54:08.057Z,3.30
2023-05-10T03:57:10.213Z,2.70
2023-05-10T04:00:12.899Z,5.32
2023-05-10T04:03:14.717Z,5.00
2023-05-10T04:06:18.403Z,3.25
2023-05-10T04:09:20.497Z,2.97
2023-05-10T04:12:22.344Z,3.63
2023-05-10T04:15:24.186Z,3.58
2023-05-10T04:18:26.233Z,4.45
2023-05-10T04:21:29.373Z,3.17
2023-05-10T04:24:31.217Z,2.95
2023-05-10T04:27:33.042Z,3.72
2023-05-10T04:30:34.956Z,2.28
2023-05-10T04:33:37.893Z,2.67
2023-05-10T04:36:41.683Z,3.88
2023-05-10T04:39:43.620Z,3.22
2023-05-10T04:42:45.389Z,3.65
2023-05-10T04:45:47.416Z,5.53
2023-05-10T04:48:49.672Z,4.78
2023-05-10T04:51:53.083Z,3.92
2023-05-10T04:54:54.911Z,4.40
2023-05-10T04:57:56.824Z,5.60
2023-05-10T05:00:58.611Z,3.70
2023-05-10T05:04:00.867Z,3.08
2023-05-10T05:07:04.149Z,4.60
2023-05-10T05:10:08.277Z,5.93
2023-05-10T05:13:11.180Z,2.78
2023-05-10T05:16:15.310Z,4.20
2023-05-10T05:19:18.165Z,2.55
2023-05-10T05:22:21.871Z,3.13
2023-05-10T05:25:24.130Z,1.95
2023-05-10T05:28:25.973Z,1.52
2023-05-10T05:31:28.055Z,1.27
2023-05-10T05:34:30.013Z,1.92
2023-05-10T05:37:33.397Z,1.35
2023-05-10T05:40:35.940Z,1.80
2023-05-10T05:43:38.657Z,1.98
2023-05-10T05:46:40.669Z,1.05
2023-05-10T05:49:42.629Z,0.93
2023-05-10T05:52:45.852Z,1.33
2023-05-10T05:55:54.380Z,1.88
2023-05-10T05:58:56.210Z,1.60
2023-05-10T06:01:58.148Z,1.05
2023-05-10T06:05:00.048Z,1.38
2023-05-10T06:08:03.272Z,0.60
2023-05-10T06:11:05.390Z,0.68
2023-05-10T06:14:07.484Z,1.05
2023-05-10T06:17:09.338Z,3.65
2023-05-10T06:20:12.619Z,1.13
2023-05-10T06:23:15.880Z,0.65
2023-05-10T06:26:17.732Z,0.40
2023-05-10T06:29:19.841Z,1.00
2023-05-10T06:32:21.751Z,0.65
2023-05-10T06:35:23.815Z,0.82
2023-05-10T06:38:27.061Z,0.50
2023-05-10T06:41:29.195Z,0.50
2023-05-10T06:44:32.614Z,0.63
2023-05-10T06:47:36.535Z,0.55
2023-05-10T06:50:40.792Z,0.63
2023-05-10T06:53:43.968Z,0.50
2023-05-10T06:56:46.021Z,0.30
2023-05-10T06:59:48.133Z,0.95
2023-05-10T07:02:50.096Z,0.40
2023-05-10T07:05:51.920Z,1.05
2023-05-10T07:08:55.741Z,1.35
2023-05-10T07:11:57.522Z,1.25
2023-05-10T07:14:59.598Z,1.00
2023-05-10T07:18:01.664Z,1.02
2023-05-10T07:21:04.199Z,0.80
2023-05-10T07:24:07.549Z,0.88
2023-05-10T07:27:09.518Z,0.43
2023-05-10T07:30:13.122Z,1.77
2023-05-10T07:33:15.822Z,0.55
2023-05-10T07:36:17.918Z,0.50
2023-05-10T07:39:26.629Z,0.40
2023-05-10T07:42:29.726Z,0.98
2023-05-10T07:45:32.595Z,0.70
2023-05-10T07:48:34.453Z,0.52
2023-05-10T07:51:36.569Z,0.65
2023-05-10T07:54:39.703Z,1.10
2023-05-10T07:57:41.648Z,0.70
2023-05-10T08:00:43.374Z,0.40
2023-05-10T08:03:45.256Z,1.35
2023-05-10T08:06:47.106Z,1.20
2023-05-10T08:09:52.633Z,1.20
2023-05-10T08:12:54.313Z,1.70
2023-05-10T08:15:56.197Z,1.00
2023-05-10T08:18:57.978Z,1.15
2023-05-10T08:21:59.705Z,0.47
2023-05-10T08:25:02.747Z,0.93
2023-05-10T08:28:04.662Z,1.85
2023-05-10T08:31:06.623Z,0.52
2023-05-10T08:34:08.489Z,0.35
2023-05-10T08:37:10.148Z,0.68
2023-05-10T08:40:13.426Z,0.98
2023-05-10T08:43:15.114Z,0.85
2023-05-10T08:46:18.260Z,3.63
2023-05-10T08:49:21.319Z,2.40
2023-05-10T08:52:27.192Z,3.75
2023-05-10T08:55:30.571Z,1.35
2023-05-10T08:58:32.593Z,2.08
2023-05-10T09:01:37.890Z,2.13
2023-05-10T09:04:39.716Z,1.95
2023-05-10T09:07:41.412Z,1.40
2023-05-10T09:10:45.747Z,1.02
2023-05-10T09:13:50.918Z,2.25
2023-05-10T09:16:53.740Z,4.30
2023-05-10T09:19:58.767Z,1.67
2023-05-10T09:23:00.406Z,1.48
2023-05-10T09:26:06.496Z,1.95
2023-05-10T09:29:08.169Z,1.00
2023-05-10T09:32:09.919Z,1.30
2023-05-10T09:35:13.533Z,2.42
2023-05-10T09:38:15.244Z,1.45
2023-05-10T09:41:20.084Z,2.72
2023-05-10T09:44:21.768Z,1.27
2023-05-10T09:47:23.452Z,1.88
2023-05-10T09:50:25.956Z,3.60
2023-05-10T09:53:27.603Z,3.13
2023-05-10T09:56:37.513Z,2.63
2023-05-10T09:59:43.751Z,1.95
2023-05-10T10:02:47.335Z,2.53
2023-05-10T10:05:49.785Z,2.95
2023-05-10T10:08:53.122Z,1.33
2023-05-10T10:11:57.728Z,3.90
2023-05-10T10:15:00.982Z,1.50
2023-05-10T10:18:02.979Z,1.48
2023-05-10T10:21:04.942Z,1.40
2023-05-10T10:24:07.256Z,1.48
2023-05-10T10:27:20.567Z,1.67
2023-05-10T10:30:28.124Z,1.13
2023-05-10T10:33:50.803Z,2.58
2023-05-10T10:36:52.516Z,1.10
2023-05-10T10:39:56.442Z,1.27
2023-05-10T10:43:23.089Z,0.85
2023-05-10T10:46:24.826Z,0.55
2023-05-10T10:49:26.695Z,0.65
2023-05-10T10:52:31.223Z,1.33
2023-05-10T10:55:32.925Z,0.70
2023-05-10T10:58:36.730Z,3.10
2023-05-10T11:01:43.031Z,1.65
2023-05-10T11:04:44.950Z,4.38
2023-05-10T11:07:52.940Z,1.17
2023-05-10T11:11:08.217Z,5.22
2023-05-10T11:14:11.433Z,2.90
2023-05-10T11:17:25.395Z,2.38
2023-05-10T11:20:28.772Z,2.05
2023-05-10T11:23:31.750Z,0.50
2023-05-10T11:26:35.987Z,0.85
2023-05-10T11:29:39.044Z,1.95
2023-05-10T11:32:41.873Z,1.38
2023-05-10T11:35:44.004Z,0.77
2023-05-10T11:38:48.501Z,1.13
2023-05-10T11:41:50.800Z,0.57
2023-05-10T11:44:53.972Z,0.80
2023-05-10T11:47:56.076Z,1.60
2023-05-10T11:50:58.063Z,1.38
2023-05-10T11:53:59.798Z,1.02
2023-05-10T11:57:01.771Z,0.60
2023-05-10T12:00:06.302Z,1.33
2023-05-10T12:03:08.242Z,0.90
2023-05-10T12:06:10.195Z,1.80
2023-05-10T12:09:11.904Z,1.98
2023-05-10T12:12:17.312Z,0.70
2023-05-10T12:15:21.769Z,0.82
2023-05-10T12:18:24.514Z,0.75
2023-05-10T12:21:27.408Z,1.30
2023-05-10T12:24:29.152Z,1.25
2023-05-10T12:27:32.874Z,2.47
2023-05-10T12:30:37.015Z,1.85
2023-05-10T12:33:39.487Z,1.13
2023-05-10T12:36:41.199Z,1.45
2023-05-10T12:39:45.013Z,0.80
2023-05-10T12:42:48.405Z,1.10
2023-05-10T12:45:51.688Z,0.77
2023-05-10T12:49:03.262Z,2.35
2023-05-10T12:52:09.998Z,1.65
2023-05-10T12:55:11.742Z,2.78
2023-05-10T12:58:17.920Z,1.05
2023-05-10T13:01:30.813Z,1.05
2023-05-10T13:04:32.666Z,0.88
2023-05-10T13:07:34.322Z,1.75
2023-05-10T13:10:35.999Z,2.38
2023-05-10T13:13:37.678Z,3.20
2023-05-10T13:16:40.748Z,1.33
2023-05-10T13:19:42.414Z,1.80
2023-05-10T13:22:44.824Z,1.95
2023-05-10T13:25:46.536Z,1.15
2023-05-10T13:28:48.233Z,0.60
2023-05-10T13:31:51.457Z,2.25
2023-05-10T13:34:53.281Z,1.33
2023-05-10T13:37:55.457Z,0.73
2023-05-10T13:40:57.123Z,1.20
2023-05-10T13:43:58.827Z,1.08
2023-05-10T13:47:01.851Z,1.88
2023-05-10T13:50:03.776Z,2.75
2023-05-10T13:53:05.501Z,3.22
2023-05-10T13:56:07.504Z,3.05
2023-05-10T13:59:09.446Z,1.00
2023-05-10T14:02:12.749Z,3.55
2023-05-10T14:05:14.475Z,0.63
2023-05-10T14:08:16.216Z,2.15
2023-05-10T14:11:17.918Z,1.83
2023-05-10T14:14:19.668Z,3.13
2023-05-10T14:17:22.798Z,3.22
2023-05-10T14:20:24.498Z,3.05
2023-05-10T14:23:26.134Z,2.05
2023-05-10T14:26:28.050Z,3.05
2023-05-10T14:29:29.682Z,1.60
2023-05-10T14:32:32.727Z,2.40
2023-05-10T14:35:34.400Z,2.40
2023-05-10T14:38:36.083Z,1.85
2023-05-10T14:41:37.757Z,2.40
2023-05-10T14:44:39.373Z,3.30
2023-05-10T14:47:42.446Z,2.45
2023-05-10T14:50:44.340Z,2.55
2023-05-10T14:53:46.017Z,2.28
2023-05-10T14:56:47.722Z,3.25
2023-05-10T14:59:49.391Z,2.10
2023-05-10T15:02:53.143Z,2.17
2023-05-10T15:05:55.227Z,2.50
2023-05-10T15:08:56.951Z,3.10
2023-05-10T15:11:58.768Z,2.33
2023-05-10T15:15:00.432Z,1.30
2023-05-10T15:18:03.688Z,2.40
2023-05-10T15:21:05.454Z,2.83
2023-05-10T15:24:07.260Z,2.75
2023-05-10T15:27:09.050Z,1.58
2023-05-10T15:30:11.821Z,3.00
2023-05-10T15:33:14.868Z,2.38
2023-05-10T15:36:16.560Z,3.10
2023-05-10T15:39:18.356Z,1.38
2023-05-10T15:42:20.116Z,1.20
2023-05-10T15:45:22.186Z,1.65
2023-05-10T15:48:25.351Z,1.25
2023-05-10T15:51:26.985Z,2.28
2023-05-10T15:54:28.810Z,1.63
2023-05-10T15:57:30.638Z,1.25
2023-05-10T16:00:32.400Z,1.42
2023-05-10T16:03:37.494Z,2.50
2023-05-10T16:06:40.002Z,1.90
2023-05-10T16:09:41.648Z,1.17
2023-05-10T16:12:43.622Z,0.80
2023-05-10T16:15:45.471Z,1.38
2023-05-10T16:18:48.956Z,1.77
2023-05-10T16:21:51.222Z,2.17
2023-05-10T16:24:53.698Z,1.77
2023-05-10T16:27:55.925Z,3.60
2023-05-10T16:30:58.326Z,1.40
2023-05-10T16:34:01.846Z,2.58
2023-05-10T16:37:04.041Z,1.25
2023-05-10T16:40:07.879Z,1.40
2023-05-10T16:43:10.195Z,1.73
2023-05-10T16:46:12.644Z,1.48
2023-05-10T16:49:16.517Z,0.75
2023-05-10T16:52:18.912Z,1.20
2023-05-10T16:55:22.917Z,2.30
2023-05-10T16:58:26.305Z,2.22
2023-05-10T17:01:28.808Z,1.38
2023-05-10T17:04:32.650Z,1.45
2023-05-10T17:07:35.038Z,1.25
2023-05-10T17:10:40.407Z,1.55
2023-05-10T17:13:42.960Z,1.95
2023-05-10T17:16:46.331Z,1.52
2023-05-10T17:19:50.073Z,2.03
2023-05-10T17:22:52.403Z,1.42
2023-05-10T17:25:55.900Z,1.27
2023-05-10T17:28:58.281Z,1.92
2023-05-10T17:32:00.897Z,1.83
2023-05-10T17:35:05.520Z,1.02
2023-05-10T17:38:07.995Z,1.30
2023-05-10T17:41:10.285Z,2.85
2023-05-10T17:44:12.681Z,0.90
2023-05-10T17:47:15.193Z,1.60
2023-05-10T17:50:19.170Z,2.35
2023-05-10T17:53:21.576Z,1.02
2023-05-10T17:56:23.985Z,1.02
2023-05-10T17:59:26.393Z,2.45
2023-05-10T18:02:28.881Z,3.40
2023-05-10T18:05:36.521Z,6.95
2023-05-10T18:08:39.027Z,3.10
2023-05-10T18:11:41.501Z,1.30
2023-05-10T18:14:43.962Z,3.13
2023-05-10T18:17:46.505Z,1.45
2023-05-10T18:20:50.527Z,1.42
2023-05-10T18:23:53.047Z,14.23
2023-05-10T18:26:55.535Z,3.45
2023-05-10T18:29:58.152Z,1.48
2023-05-10T18:33:00.728Z,1.48
2023-05-10T18:36:05.450Z,1.35
2023-05-10T18:39:07.924Z,1.52
2023-05-10T18:42:10.444Z,1.52
2023-05-10T18:45:13.351Z,0.90
2023-05-10T18:48:16.953Z,1.83
2023-05-10T18:51:20.914Z,1.55
2023-05-10T18:54:23.361Z,3.08
2023-05-10T18:57:25.805Z,2.17
2023-05-10T19:00:28.295Z,2.65
2023-05-10T19:03:31.021Z,2.67
2023-05-10T19:06:35.012Z,2.67
2023-05-10T19:09:37.557Z,3.63
2023-05-10T19:12:40.256Z,2.42
2023-05-10T19:15:44.131Z,3.85
2023-05-10T19:18:46.780Z,8.25
2023-05-10T19:21:50.922Z,3.75
2023-05-10T19:24:53.487Z,4.45
2023-05-10T19:27:56.214Z,7.60
2023-05-10T19:30:58.715Z,4.35
2023-05-10T19:34:01.350Z,3.17
2023-05-10T19:37:05.347Z,2.90
2023-05-10T19:40:11.080Z,2.35
2023-05-10T19:43:13.574Z,1.75
2023-05-10T19:46:17.816Z,2.35
2023-05-10T19:49:22.013Z,2.25
2023-05-10T19:52:25.870Z,2.65
2023-05-10T19:55:29.523Z,10.68
2023-05-10T19:58:32.015Z,2.13
2023-05-10T20:01:34.595Z,4.55
2023-05-10T20:04:38.088Z,1.90
2023-05-10T20:07:41.953Z,1.83
2023-05-10T20:10:45.529Z,1.50
2023-05-10T20:13:47.984Z,1.80
2023-05-10T20:16:50.521Z,0.95
2023-05-10T20:19:53.030Z,2.03
2023-05-10T20:22:56.923Z,1.83
2023-05-10T20:25:59.414Z,1.30
2023-05-10T20:29:05.972Z,1.15
2023-05-10T20:32:08.472Z,1.45
2023-05-10T20:35:11.324Z,0.80
2023-05-10T20:38:15.205Z,1.25
2023-05-10T20:41:17.727Z,0.98
2023-05-10T20:44:20.237Z,0.95
2023-05-10T20:47:23.062Z,1.00
2023-05-10T20:50:26.255Z,1.40
2023-05-10T20:53:30.372Z,1.65
2023-05-10T20:56:32.913Z,0.80
2023-05-10T20:59:35.350Z,1.83
2023-05-10T21:02:37.209Z,0.80
2023-05-10T21:05:39.091Z,1.08
2023-05-10T21:08:42.221Z,4.85
2023-05-10T21:11:44.049Z,1.60
2023-05-10T21:14:45.708Z,0.90
2023-05-10T21:17:47.477Z,1.35
2023-05-10T21:20:49.263Z,1.17
2023-05-10T21:23:52.385Z,1.00
2023-05-10T21:26:54.044Z,1.02
2023-05-10T21:29:55.744Z,1.80
2023-05-10T21:32:57.585Z,0.70
2023-05-10T21:35:59.315Z,4.00
2023-05-10T21:39:02.381Z,2.35
2023-05-10T21:42:04.450Z,1.15
2023-05-10T21:45:07.072Z,1.52
2023-05-10T21:48:08.877Z,1.33
2023-05-10T21:51:10.518Z,1.08
2023-05-10T21:54:13.580Z,1.00
2023-05-10T21:57:15.290Z,0.75
2023-05-10T22:00:17.491Z,1.60
2023-05-10T22:03:19.424Z,1.20
2023-05-10T22:06:21.191Z,3.20
2023-05-10T22:09:24.302Z,1.30
2023-05-10T22:12:26.128Z,1.00
2023-05-10T22:15:27.868Z,0.90
2023-05-10T22:18:29.731Z,0.73
2023-05-10T22:21:31.435Z,4.47
2023-05-10T22:24:34.840Z,1.08
2023-05-10T22:27:36.785Z,1.20
2023-05-10T22:30:38.616Z,0.95
2023-05-10T22:33:40.358Z,1.85
2023-05-10T22:36:42.061Z,5.35
2023-05-10T22:39:45.396Z,0.75
2023-05-10T22:42:47.115Z,1.10
2023-05-10T22:45:48.924Z,1.88
2023-05-10T22:48:50.649Z,0.80
2023-05-10T22:51:52.277Z,0.93
2023-05-10T22:54:55.270Z,2.45
2023-05-10T22:57:56.976Z,2.03
2023-05-10T23:00:58.834Z,3.70
2023-05-10T23:04:00.576Z,1.73
2023-05-10T23:07:02.248Z,0.90
2023-05-10T23:10:06.348Z,1.10
2023-05-10T23:13:08.124Z,2.85
2023-05-10T23:16:09.963Z,1.33
2023-05-10T23:19:11.666Z,2.03
2023-05-10T23:22:13.341Z,2.08
2023-05-10T23:25:16.585Z,0.80
2023-05-10T23:28:18.394Z,1.20
2023-05-10T23:31:20.170Z,1.63
2023-05-10T23:34:21.897Z,1.92
2023-05-10T23:37:23.617Z,1.17
2023-05-10T23:40:26.652Z,2.25
2023-05-10T23:43:28.345Z,2.03
2023-05-10T23:46:30.040Z,2.40
2023-05-10T23:49:31.738Z,1.70
2023-05-10T23:52:33.397Z,1.65
2023-05-10T23:55:36.432Z,0.85
2023-05-10T23:58:38.106Z,1.33
